Weather observations for the past three days for
Greater Kankakee Airport
Imperial (Metric)
Date Time (cdt) Wind (mph) Vis. (mi.) Weather Sky Cond. Temperature (ºF) Relative Humidity Wind Chill (°F) Heat Index (°F) Pressure Precipitation (in)
Air Dwpt 6 hour altimeter (in) sea level (mb) 1 hr 3 hr 6 hr
Max. Min.
06 12:35 W 10 G 18 10.00 Partly Cloudy SCT060 55.6 26.6 33% 29.99 0.0
06 12:15 W 7 10.00 Partly Cloudy SCT060 54.9 29.8 38% 29.99 0.0
06 11:55 NW 9 10.00 Fair CLR 54.7 27.5 35% 29.98 0.0
06 11:35 W 6 10.00 Fair CLR 54.5 29.1 38% 29.97 0.0
06 11:15 Calm 10.00 Fair CLR 53.1 28 38% 29.97 0.0
06 10:55 E 3 10.00 Fair CLR 52 28.2 40% 29.97 0.0
06 10:35 NE 3 10.00 Fair CLR 51.1 29.5 44% 29.97 0.0
06 10:15 Calm 10.00 Fair CLR 50.7 30 45% 29.97 0.0
06 09:55 Calm 10.00 Fair CLR 49.3 31.3 50% 29.97 0.0
06 09:35 Calm 10.00 Fair CLR 48.6 32.2 53% 29.97 0.0
06 09:15 Calm 10.00 Fair CLR 47.7 32.7 56% 29.98 0.0
06 08:55 Calm 10.00 Fair CLR 47.3 32.2 56% 29.97 0.0
06 08:35 NE 3 10.00 Fair CLR 47.3 33.1 58% 29.97 0.0
06 08:15 NE 6 10.00 Fair CLR 46.8 33.1 59% 44 29.95 0.0
06 07:55 NE 3 10.00 Fair CLR 46.9 33.1 59% 29.95 0.0
06 07:35 NE 6 10.00 Fair CLR 45.7 33.8 63% 43 29.93 0.0
06 06:55 NE 3 10.00 Fair CLR 44.1 34.7 48.2 40.1 70% 29.92 0.0
06 06:35 N 5 10.00 Fair CLR 42.6 34.7 74% 40 29.91 0.0
06 06:15 NE 5 10.00 Fair CLR 41.7 34 74% 39 29.9 0.0
06 05:55 NE 3 10.00 Fair CLR 40.5 33.1 75% 29.9 0.0
06 05:35 NE 5 10.00 Fair CLR 40.6 33.3 75% 38 29.89 0.0
06 05:15 NE 5 10.00 Fair CLR 42.3 33.1 70% 40 29.88 0.0
06 04:55 NE 8 10.00 Fair CLR 42.8 33.3 69% 39 29.87 0.0
06 04:35 NE 9 10.00 Fair CLR 44.1 32.2 63% 40 29.88 0.0
06 04:15 N 10 10.00 Fair CLR 45.1 32.5 61% 40 29.88 0.0
06 03:55 N 9 10.00 Fair CLR 45 32.5 62% 41 29.87 0.0
06 03:35 N 7 10.00 Fair CLR 44.6 33.1 64% 41 29.87 0.0
06 03:15 N 7 10.00 Fair CLR 45 34 66% 42 29.86 0.0
06 02:55 NW 6 10.00 Fair CLR 45.7 34.7 66% 43 29.86 0.0
06 02:35 NW 8 10.00 Fair CLR 46 35.2 66% 42 29.85 0.0
06 02:15 NW 6 10.00 Fair CLR 46.8 36 66% 44 29.84 0.0
06 01:55 NW 6 10.00 Fair CLR 46.4 37.4 71% 44 29.84 0.0
06 01:35 W 6 10.00 Mostly Cloudy BKN110 47.8 37.4 67% 46 29.84 0.0
06 01:15 W 6 10.00 Mostly Cloudy BKN110 47.7 39 72% 45 29.85 0.0
06 00:55 W 7 10.00 Partly Cloudy SCT110 48.2 39 52.9 48.2 71% 46 29.85 0.0
06 00:35 W 6 10.00 Partly Cloudy SCT110 48.4 38.3 68% 46 29.85 0.0
06 00:15 W 5 10.00 Mostly Cloudy SCT100 BKN120 48.6 40.3 73% 47 29.85 0.0
05 23:55 Calm 10.00 Overcast OVC100 48.9 38.8 68% 29.84 0.0
05 23:35 W 3 10.00 Overcast BKN080 OVC100 49.6 37.4 63% 29.85 0.0
05 23:15 W 3 10.00 Overcast SCT080 OVC100 49.6 37.4 63% 29.85 0.0
05 22:55 W 5 10.00 Overcast OVC090 50.4 35.2 56% 29.85 0.0
05 22:35 W 6 10.00 Overcast OVC080 50.9 33.8 52% 29.86 0.0
05 22:15 W 5 10.00 Mostly Cloudy BKN080 BKN100 50.5 34.2 54% 29.85 0.0
05 21:55 NW 5 10.00 Overcast SCT080 OVC100 51.1 32.9 50% 29.84 0.0
05 21:35 W 6 10.00 Overcast OVC090 51.1 32.9 50% 29.84 0.0
05 21:15 NW 5 10.00 Overcast OVC090 51.1 34.9 54% 29.83 0.0
05 20:55 NW 3 10.00 Overcast OVC090 51.3 34 52% 29.82 0.0
05 20:35 NW 5 10.00 Overcast OVC090 51.8 32.7 48% 29.82 0.0
05 20:15 NW 3 10.00 Overcast BKN090 OVC110 52 33.3 49% 29.81 0.0
05 19:55 NW 5 10.00 Overcast OVC090 52 33.4 49% 29.81 0.0
05 19:35 NW 5 10.00 Overcast OVC090 52.5 33.1 48% 29.81 0.0
05 19:15 W 5 10.00 Overcast OVC090 52.5 34 49% 29.81 0.0
05 18:55 NW 7 10.00 Overcast OVC090 52.9 32.5 55.9 52.9 46% 29.8 0.0
05 18:35 NW 6 G 18 10.00 Mostly Cloudy BKN090 53.2 32.7 46% 29.79 0.0
05 18:15 NW 12 G 18 10.00 Mostly Cloudy BKN090 53.8 32.7 45% 29.8 0.0
05 17:55 NW 15 G 18 10.00 Overcast OVC090 53.8 32 44% 29.8 0.0
05 17:35 NW 8 10.00 Light Rain OVC080 53.6 32.5 45% 29.81 0.0
05 17:15 NW 8 10.00 Overcast SCT038 BKN085 OVC090 54 33.1 45% 29.81 0.0
05 16:55 NW 13 G 17 10.00 Light Rain SCT038 SCT055 OVC085 53.6 33.8 47% 29.82 0.0
05 16:35 W 7 10.00 Light Rain SCT042 BKN065 OVC085 53.4 37.9 56% 29.82 0.0
05 16:15 W 8 10.00 Light Rain SCT060 OVC070 53.1 36.5 54% 29.82 0.0
05 15:55 W 7 10.00 Light Rain OVC080 53.2 36.1 52% 29.83 0.0
05 15:35 W 7 10.00 Light Rain OVC090 53.8 34.5 48% 29.84 0.0
05 15:15 NW 9 10.00 Mostly Cloudy BKN090 54.1 33.6 46% 29.84 0.0
05 14:55 W 9 10.00 Partly Cloudy SCT100 54.5 34.5 47% 29.83 0.0
05 14:35 NW 17 G 25 10.00 Fair CLR 54.5 35.4 49% 29.83 0.0
05 14:15 N 12 10.00 Partly Cloudy SCT042 SCT120 54.7 35.4 48% 29.83 0.0
05 13:55 NW 13 G 18 10.00 Partly Cloudy SCT042 55.6 36.3 49% 29.83 0.0
05 13:35 W 7 10.00 Partly Cloudy SCT037 55.4 39.2 55% 29.83 0.0
05 13:15 W 7 10.00 Partly Cloudy SCT037 SCT095 55.4 39.2 55% 29.83 0.0
05 12:55 W 3 10.00 Partly Cloudy SCT032 SCT095 55.9 40.1 55.9 47.5 55% 29.83 0.0
05 12:35 NW 9 10.00 Partly Cloudy SCT032 54.9 40.1 58% 29.83 0.0
05 11:55 NW 7 10.00 Partly Cloudy SCT090 53.2 39.9 61% 29.83 0.0
05 11:35 N 6 10.00 Mostly Cloudy BKN090 52.7 40.3 63% 29.83 0.0
05 11:15 N 5 10.00 Mostly Cloudy BKN080 52 41.7 68% 29.83 0.0
05 10:55 NW 9 10.00 Mostly Cloudy SCT015 BKN090 51.1 42.6 73% 29.83 0.0
05 10:35 N 9 10.00 Overcast SCT015 OVC090 49.3 42.3 77% 46 29.82 0.0
05 10:15 N 7 10.00 Overcast SCT015 OVC090 48.9 43.2 81% 46 29.83 0.0
05 09:55 Calm 10.00 Overcast OVC090 48 41.7 79% 29.82 0.0
05 09:35 N 8 10.00 Light Rain SCT050 BKN080 OVC090 47.7 42.3 82% 44 29.82 0.0
05 09:15 N 10 10.00 Light Rain SCT045 BKN080 OVC085 47.7 41.2 78% 44 29.82 0.0
05 08:35 N 5 10.00 Light Rain OVC080 49.1 41.4 75% 48 29.83 0.0
05 08:15 NW 7 10.00 Light Rain OVC075 50.2 40.1 68% 29.84 0.0
05 07:35 N 8 10.00 Overcast OVC090 51.1 38.1 61% 29.79 0.0
05 07:15 NW 12 G 16 10.00 Overcast OVC090 51.1 39.4 64% 29.78 0.0
05 06:55 NW 10 10.00 Overcast OVC090 51.4 39.9 57.2 51.4 65% 29.76 0.0
05 06:15 NW 6 10.00 Overcast OVC110 51.8 40.8 66% 29.73 0.0
05 05:55 N 9 10.00 Mostly Cloudy BKN100 BKN120 52.2 40.6 65% 29.7 0.0
05 05:35 NW 9 10.00 Overcast SCT080 OVC100 52.7 42.1 67% 29.74 0.0
05 05:15 NW 6 10.00 Overcast SCT080 OVC090 52.7 42.8 69% 29.72 0.0
05 04:55 W 8 10.00 Light Rain OVC090 53.2 43.2 69% 29.74 0.0
05 04:35 W 9 10.00 Overcast OVC090 54.5 41 61% 29.74 0.0
05 04:15 W 9 10.00 Overcast OVC090 54.7 42.3 63% 29.73 0.0
05 03:55 W 8 10.00 Overcast OVC090 55.2 42.4 62% 29.71 0.0
05 03:35 W 8 10.00 Overcast OVC080 55 44.8 69% 29.69 0.0
05 03:15 SW 7 10.00 Overcast OVC080 56.1 46.9 71% 29.69 0.0
05 02:55 W 7 10.00 Overcast OVC070 57 45.9 66% 29.68 0.0
05 02:35 W 6 10.00 Overcast OVC070 55.4 46.8 73% 29.67 0.0
05 02:15 W 5 10.00 Mostly Cloudy BKN070 56.3 46.6 70% 29.66 0.0
05 01:55 W 6 10.00 Fair CLR 55.4 49.5 81% 29.65 0.0
05 01:35 SW 5 10.00 Thunderstorm in Vicinity CLR 57 51.4 82% 29.64 0.0
05 01:15 S 8 10.00 Fair CLR 56.1 52.2 87% 29.64 0.0
05 00:55 SW 3 10.00 Fair CLR 57 52.9 74.3 56.5 86% 29.62 0.0 0.15
05 00:35 Calm 10.00 Thunderstorm in Vicinity CLR 57.4 52.9 85% 29.62 0.0
05 00:15 W 6 10.00 Fair CLR 56.8 52.7 86% 29.62 0.0
04 23:55 W 8 10.00 Fair CLR 59 51.6 77% 29.62 0.0
04 23:35 W 6 10.00 Thunderstorm in Vicinity CLR 60.1 50.5 71% 29.61 0.0
04 23:15 W 10 10.00 Partly Cloudy SCT080 SCT110 60.3 51.1 72% 29.59 0.0
04 22:55 SW 13 10.00 Light Rain BKN080 OVC100 59.5 50.7 73% 29.59 0.0 0.04
04 22:35 SW 17 G 23 10.00 Thunderstorm Light Rain in Vicinity OVC090 57.9 51.4 79% 29.62 0.0 0.03
04 22:15 W 18 G 36 10.00 Thunderstorm Light Rain SCT055 OVC080 58.8 53.1 81% 29.64 0.0 0.02
04 21:55 S 6 10.00 Thunderstorm Light Rain in Vicinity SCT050 SCT065 OVC090 57.2 53.6 88% 29.59 0.0 0.1 0.11
04 21:35 SW 6 G 9 10.00 Thunderstorm Light Rain SCT041 BKN065 OVC090 58.5 53.6 84% 29.62 0.0 0.09
04 21:15 Calm 10.00 Thunderstorm Light Rain OVC055 59 53.2 81% 29.61 0.0
04 20:55 NW 12 10.00 Thunderstorm Light Rain BKN055 BKN065 OVC100 59.7 52.5 77% 29.62 0.0 0.01
04 20:35 NW 12 G 26 10.00 Rain BKN055 BKN080 OVC110 59.5 51.8 76% 29.62 0.0 0.01
04 20:15 W 32 G 40 10.00 Thunderstorm and Windy SCT055 SCT065 BKN110 72 51.3 48% 29.62 0.0
04 19:55 SW 22 G 28 10.00 Partly Cloudy and Breezy SCT120 72.9 51.3 47% 29.56 0.0
04 19:35 SW 23 G 26 10.00 Fair and Breezy CLR 73 51.3 46% 29.54 0.0
04 19:15 SW 23 G 36 10.00 Fair and Breezy CLR 73.8 51.4 46% 29.53 0.0
04 18:55 SW 22 G 31 10.00 Fair and Breezy CLR 74.3 50.9 79 74.3 44% 29.53 0.0
04 18:35 SW 26 G 39 10.00 Partly Cloudy and Windy SCT036 SCT043 76.1 50.4 41% 78 29.52 0.0
04 18:15 SW 22 G 35 7.00 Partly Cloudy and Breezy SCT036 SCT043 75.2 50 41% 78 29.51 0.0
04 17:55 SW 35 G 41 10.00 Fair and Windy CLR 77 49.5 38% 78 29.53 0.0
04 17:35 SW 24 G 40 7.00 Mostly Cloudy and Breezy SCT028 BKN036 BKN043 77 49.5 38% 78 29.53 0.0
04 17:15 SW 30 G 40 7.00 Mostly Cloudy and Windy SCT028 BKN036 BKN043 77.2 49.6 38% 78 29.54 0.0
04 16:55 SW 30 G 40 7.00 Mostly Cloudy and Windy SCT033 SCT043 BKN070 77.4 49.8 38% 78 29.55 0.0
04 16:35 SW 22 G 33 10.00 Partly Cloudy and Breezy SCT070 77.9 49.8 37% 79 29.55 0.0
04 16:15 SW 25 G 38 10.00 Mostly Cloudy and Breezy BKN070 BKN090 78.4 50 37% 79 29.57 0.0
04 15:55 SW 29 G 35 10.00 Partly Cloudy and Windy SCT060 SCT075 77.7 50.4 38% 78 29.57 0.0
04 15:35 SW 25 G 36 10.00 Fair and Breezy CLR 77.5 52.3 42% 79 29.57 0.0
04 15:15 SW 25 G 36 10.00 Fair and Breezy CLR 76.5 51.6 42% 78 29.58 0.0
04 14:55 SW 22 G 35 10.00 Fair and Breezy CLR 77.9 50.4 38% 79 29.57 0.0
04 14:35 SW 23 G 35 10.00 Fair and Breezy CLR 77.4 49.6 38% 78 29.58 0.0
04 14:15 SW 25 G 36 10.00 Fair and Breezy CLR 77.9 48.4 35% 78 29.58 0.0
04 13:55 SW 28 G 33 10.00 Fair and Windy CLR 77.9 48 35% 78 29.59 0.0
04 13:35 SW 24 G 32 10.00 Fair and Breezy CLR 78.3 48 35% 79 29.59 0.0
04 13:15 SW 25 G 33 10.00 Fair and Breezy CLR 78.4 48.2 35% 79 29.59 0.0
04 12:55 SW 26 G 33 10.00 Partly Cloudy and Windy SCT065 77.7 46.9 78.6 49.3 34% 78 29.59 0.0
04 12:35 SW 23 G 32 10.00 Partly Cloudy and Breezy SCT065 78.3 47.7 34% 79 29.6 0.0
04 12:15 SW 23 G 31 10.00 Partly Cloudy and Breezy SCT065 76.1 48.9 38% 78 29.6 0.0
04 11:55 SW 24 G 30 10.00 Fair and Breezy CLR 75.9 50 40% 78 29.61 0.0
04 11:35 SW 21 G 26 10.00 Fair and Breezy CLR 74.7 50.5 43% 29.62 0.0
04 11:15 SW 16 G 25 10.00 Fair CLR 73 50.9 46% 29.62 0.0
04 10:55 SW 18 G 24 10.00 Fair CLR 72.1 50.9 47% 29.62 0.0
04 10:35 SW 15 G 24 10.00 Fair CLR 71.1 50.5 48% 29.63 0.0
04 10:15 SW 16 G 23 10.00 Fair CLR 70.2 50.5 50% 29.64 0.0
04 09:55 SW 16 G 25 10.00 Fair CLR 68.9 49.6 50% 29.65 0.0
04 09:35 SW 17 G 23 10.00 Fair CLR 67.8 49.5 52% 29.66 0.0
04 09:15 SW 13 10.00 Fair CLR 65.7 49.1 55% 29.67 0.0
04 08:55 SW 15 G 21 10.00 Fair CLR 64 48.9 58% 29.68 0.0
04 08:35 SW 9 10.00 Fair CLR 60.8 48.9 65% 29.69 0.0
04 08:15 SW 9 10.00 Fair CLR 59.2 47.7 66% 29.69 0.0
04 07:55 S 6 10.00 Fair CLR 56.8 47.5 71% 29.69 0.0
04 07:35 SW 6 10.00 Fair CLR 53.1 46 77% 29.7 0.0
04 07:15 S 5 10.00 Fair CLR 51.1 46.4 84% 29.7 0.0
04 06:55 S 5 10.00 Fair CLR 49.1 45.7 52.9 45.5 88% 48 29.7 0.0
04 06:35 Calm 10.00 Fair CLR 47.8 45 90% 29.7 0.0
04 06:15 Calm 10.00 Fair CLR 47.1 44.4 90% 29.7 0.0
04 05:55 NW 6 10.00 Fair CLR 48.2 44.8 88% 46 29.7 0.0
04 05:35 SW 3 10.00 Fair CLR 46.2 44.8 95% 29.7 0.0
04 05:15 Calm 10.00 Fair CLR 49.1 44.4 84% 29.7 0.0
04 04:55 SW 7 10.00 Fair CLR 49.3 44.6 84% 47 29.71 0.0
04 04:35 SW 8 10.00 Fair CLR 49.5 44.6 83% 47 29.71 0.0
04 04:15 SW 9 10.00 Fair CLR 50 44.6 82% 47 29.72 0.0
04 03:55 SW 9 10.00 Fair CLR 50 44.6 82% 47 29.72 0.0
04 03:35 SW 7 10.00 Fair CLR 49.5 44.1 82% 47 29.71 0.0
04 03:15 S 3 10.00 Fair CLR 49.3 43.7 81% 29.71 0.0
04 02:55 SW 7 10.00 Fair CLR 50.5 44.1 79% 29.71 0.0
04 02:35 SW 9 10.00 Fair CLR 51.1 43.9 77% 29.72 0.0
04 02:15 SW 9 10.00 Fair CLR 51.4 43.9 76% 29.72 0.0
04 01:55 SW 9 10.00 Fair CLR 51.8 43.7 74% 29.73 0.0
04 01:35 SW 8 10.00 Fair CLR 51.8 43.5 74% 29.73 0.0
04 01:15 SW 6 10.00 Fair CLR 52.3 43.3 72% 29.74 0.0
04 00:55 SW 7 10.00 Fair CLR 52.9 43.3 66.2 51.3 70% 29.75 0.0
04 00:35 S 7 10.00 Fair CLR 52 43.2 72% 29.75 0.0
04 00:15 S 8 10.00 Fair CLR 52.9 43.2 70% 29.76 0.0
03 23:55 S 8 10.00 Fair CLR 51.6 43 73% 29.76 0.0
03 23:35 S 6 10.00 Fair CLR 53.4 43 68% 29.76 0.0
03 23:15 S 7 10.00 Fair CLR 53.6 42.8 67% 29.76 0.0
03 22:55 S 7 10.00 Fair CLR 54.5 42.8 65% 29.77 0.0
03 22:35 S 7 10.00 Fair CLR 54.5 42.8 65% 29.77 0.0
03 22:15 S 7 10.00 Fair CLR 55.4 42.6 62% 29.78 0.0
03 21:55 S 7 10.00 Fair CLR 55.9 42.8 62% 29.78 0.0
03 21:35 S 7 10.00 Fair CLR 55.2 42.6 63% 29.77 0.0
03 21:15 S 7 10.00 Fair CLR 57 42.4 58% 29.77 0.0
03 20:55 S 7 10.00 Fair CLR 57.2 42.1 57% 29.77 0.0
03 20:35 S 5 10.00 Fair CLR 59.2 41 51% 29.77 0.0
03 20:15 SW 6 10.00 Fair CLR 61.2 40.6 47% 29.77 0.0
03 19:55 SW 7 10.00 Fair CLR 61.9 41 46% 29.77 0.0
03 19:35 SW 12 10.00 Fair CLR 63.9 40.8 43% 29.77 0.0
03 19:15 SW 15 10.00 Partly Cloudy SCT065 65.3 40.3 40% 29.77 0.0
03 18:55 SW 17 G 23 10.00 Mostly Cloudy BKN065 66.2 40.3 66.2 59 39% 29.77 0.0
03 18:35 SW 18 G 22 10.00 Overcast OVC065 65.3 40.1 40% 29.78 0.0
03 18:15 SW 13 G 20 10.00 Overcast OVC065 64 40.3 42% 29.78 0.0
03 17:55 SW 14 G 22 10.00 Overcast OVC065 63.9 40.1 42% 29.79 0.0
03 17:35 SW 16 G 24 10.00 Overcast OVC065 63.9 39.6 41% 29.79 0.0
03 17:15 SW 21 G 25 10.00 Overcast and Breezy OVC065 63.5 39.6 42% 29.79 0.0
03 16:55 SW 16 G 29 10.00 Overcast OVC065 64 38.8 40% 29.8 0.0
03 16:35 SW 16 G 29 10.00 Mostly Cloudy BKN075 63.5 38.1 39% 29.8 0.0
03 16:15 SW 21 G 26 10.00 Overcast and Breezy OVC075 64.2 38.5 39% 29.82 0.0
03 15:55 SW 20 G 32 10.00 Mostly Cloudy BKN075 BKN110 63.9 36.7 37% 29.82 0.0
03 15:35 SW 15 G 30 10.00 Mostly Cloudy BKN075 64.2 37.8 38% 29.82 0.0
03 15:15 SW 22 G 31 10.00 Overcast and Breezy OVC085 62.6 34.5 35% 29.84 0.0
03 14:55 S 20 G 31 10.00 Overcast OVC085 62.6 35.2 36% 29.85 0.0
03 14:35 S 22 G 31 10.00 Overcast and Breezy OVC085 62.6 35.6 37% 29.85 0.0
03 14:15 S 23 G 32 10.00 Overcast and Breezy OVC085 61.7 35.4 38% 29.87 0.0
03 13:55 SW 21 G 26 10.00 Overcast and Breezy OVC085 61.9 36.7 39% 29.87 0.0
03 13:35 S 15 G 22 10.00 Overcast OVC085 60.8 37.2 42% 29.89 0.0
03 13:15 SW 17 G 26 10.00 Overcast OVC085 59.2 34.7 40% 29.91 0.0
03 12:55 SW 17 G 23 10.00 Mostly Cloudy SCT045 SCT055 BKN085 59 37.9 59 45.5 46% 29.93 0.0
Date Time (cdt) Wind (mph) Vis. (mi.) Weather Sky Cond. Air Dwpt Max. Min. Relative Humidity Wind Chill (°F) Heat Index (°F) altimeter (in) sea level (mb) 1 hr 3 hr 6 hr
6 hour
Temperature (ºF) Pressure Precipitation (in)